Time;durP1;ratioP1;P1;durP2;ratioP2;P2;SDS_P1;SDS_P2;PMS_P1;PMS_P2;Temp;Humidity;BMP_temperature;BMP_pressure;BME280_temperature;BME280_humidity;BME280_pressure;Samples;Min_cycle;Max_cycle;Signal;HPM_P1;HPM_P2
2023/03/28 00:01:13;;;;;;;;;;;;;;;2.74;100.00;97056.44;5061997;28;19932;-78
2023/03/28 00:03:40;;;;;;;;;;;;;;;2.78;100.00;97057.81;5065530;28;19970;-78
2023/03/28 00:06:09;;;;;;;;;;;;;;;2.73;100.00;97057.44;5067312;28;19984;-78
2023/03/28 00:08:39;;;;;;;;;;;;;;;2.73;100.00;97051.28;5065107;28;19936;-78
2023/03/28 00:11:07;;;;;;;;;;;;;;;2.73;100.00;97060.13;5064769;28;19925;-79
2023/03/28 00:13:34;;;;;;;;;;;;;;;2.76;100.00;97058.97;5067819;28;19924;-78
2023/03/28 00:16:02;;;;;;;;;;;;;;;2.76;100.00;97064.28;5065055;28;19966;-78
2023/03/28 00:18:29;;;;;;;;;;;;;;;2.79;100.00;97075.47;5063544;28;19931;-78
2023/03/28 00:20:56;;;;;;;;;;;;;;;2.79;100.00;97075.47;5067697;28;19924;-78
2023/03/28 00:23:23;;;;;;;;;;;;;;;2.77;100.00;97074.81;5066396;28;19939;-78
2023/03/28 00:25:51;;;;;;;;;;;;;;;2.76;100.00;97070.47;5061203;28;20008;-78
2023/03/28 00:28:18;;;;;;;;;;;;;;;2.76;100.00;97074.97;5068376;28;19931;-79
2023/03/28 00:30:44;;;;;;;;;;;;;;;2.82;100.00;97076.97;5071875;28;19938;-78
2023/03/28 00:33:11;;;;;;;;;;;;;;;2.84;100.00;97073.16;5065659;28;19925;-79
2023/03/28 00:35:38;;;;;;;;;;;;;;;2.82;100.00;97075.13;5067878;28;19932;-78
2023/03/28 00:38:05;;;;;;;;;;;;;;;2.91;100.00;97084.81;5065445;28;19924;-78
2023/03/28 00:40:35;;;;;;;;;;;;;;;2.90;100.00;97087.66;5061447;28;19932;-79
2023/03/28 00:43:04;;;;;;;;;;;;;;;2.88;100.00;97095.00;5064161;28;19925;-80
2023/03/28 00:45:31;;;;;;;;;;;;;;;2.86;100.00;97091.66;5065553;28;21620;-79
2023/03/28 00:48:02;;;;;;;;;;;;;;;2.87;100.00;97090.66;5060895;28;19984;-79
2023/03/28 00:50:30;;;;;;;;;;;;;;;2.92;100.00;97096.31;5063841;28;19924;-79
2023/03/28 00:52:58;;;;;;;;;;;;;;;2.86;100.00;97092.50;5067311;28;20049;-78
2023/03/28 00:55:28;;;;;;;;;;;;;;;2.83;100.00;97103.47;5083487;28;19979;-79
2023/03/28 00:57:55;;;;;;;;;;;;;;;2.88;100.00;97097.66;5078181;28;19932;-79
2023/03/28 01:00:25;;;;;;;;;;;;;;;2.86;100.00;97094.31;5062389;28;19936;-80
2023/03/28 01:02:54;;;;;;;;;;;;;;;2.86;100.00;97092.50;5070376;28;19929;-78
2023/03/28 01:05:23;;;;;;;;;;;;;;;2.84;100.00;97098.97;5058468;28;19928;-78
2023/03/28 01:07:52;;;;;;;;;;;;;;;2.84;100.00;97094.47;5062743;28;19924;-79
2023/03/28 01:10:22;;;;;;;;;;;;;;;2.80;100.00;97095.81;5067151;28;19932;-79
2023/03/28 01:12:51;;;;;;;;;;;;;;;2.81;100.00;97100.13;5063076;28;19925;-79
2023/03/28 01:15:19;;;;;;;;;;;;;;;2.81;100.00;97105.47;5057564;28;19925;-78
2023/03/28 01:17:54;;;;;;;;;;;;;;;2.78;100.00;97108.47;5074415;28;20026;-79
2023/03/28 01:20:29;;;;;;;;;;;;;;;2.78;100.00;97111.16;5066583;28;19930;-79
2023/03/28 01:23:15;;;;;;;;;;;;;;;2.81;100.00;97116.13;5063201;28;19928;-78
2023/03/28 01:25:59;;;;;;;;;;;;;;;2.86;100.00;97121.00;5070169;28;19974;-79
2023/03/28 01:28:36;;;;;;;;;;;;;;;2.85;100.00;97122.81;5066648;28;20023;-79
2023/03/28 01:31:12;;;;;;;;;;;;;;;2.75;100.00;97122.13;5067456;28;19924;-78
2023/03/28 01:34:12;;;;;;;;;;;;;;;2.73;100.00;97118.78;5064189;28;19959;-79
2023/03/28 01:36:49;;;;;;;;;;;;;;;2.65;100.00;97116.09;5065034;28;19933;-79
2023/03/28 01:39:19;;;;;;;;;;;;;;;2.61;100.00;97114.75;5069980;28;19978;-78
2023/03/28 01:41:50;;;;;;;;;;;;;;;2.67;100.00;97119.44;5068262;28;20047;-78
2023/03/28 01:44:24;;;;;;;;;;;;;;;2.63;100.00;97123.44;5084612;28;19932;-79
2023/03/28 01:46:56;;;;;;;;;;;;;;;2.54;100.00;97121.75;5076382;28;19925;-78
2023/03/28 01:49:30;;;;;;;;;;;;;;;2.52;100.00;97127.22;5068199;28;19929;-79
2023/03/28 01:52:00;;;;;;;;;;;;;;;2.53;100.00;97120.06;5064681;28;19925;-79
2023/03/28 01:54:30;;;;;;;;;;;;;;;2.58;100.00;97125.75;5084490;28;19998;-79
2023/03/28 01:57:02;;;;;;;;;;;;;;;2.51;100.00;97117.56;5068955;28;19979;-79
2023/03/28 01:59:35;;;;;;;;;;;;;;;2.53;100.00;97123.56;5065673;28;19925;-79
2023/03/28 02:02:28;;;;;;;;;;;;;;;2.52;100.00;97121.06;5086449;28;19934;-79
2023/03/28 02:05:01;;;;;;;;;;;;;;;2.42;100.00;97120.34;5069821;28;19954;-79
2023/03/28 02:07:32;;;;;;;;;;;;;;;2.44;100.00;97121.88;5079411;28;19924;-79
2023/03/28 02:10:19;;;;;;;;;;;;;;;2.37;100.00;97117.34;5087151;28;20350;-78
2023/03/28 02:13:00;;;;;;;;;;;;;;;2.35;100.00;97117.50;5085739;28;19924;-78
2023/03/28 02:15:44;;;;;;;;;;;;;;;2.37;100.00;97118.19;5068394;28;20019;-79
2023/03/28 02:18:28;;;;;;;;;;;;;;;2.37;100.00;97118.19;5078004;28;19939;-78
2023/03/28 02:21:17;;;;;;;;;;;;;;;2.38;100.00;97125.19;5061134;28;19936;-80
2023/03/28 02:23:59;;;;;;;;;;;;;;;2.34;100.00;97117.66;5068730;28;19924;-78
2023/03/28 02:26:53;;;;;;;;;;;;;;;2.35;100.00;97114.00;5066435;28;19931;-78
2023/03/28 02:29:55;;;;;;;;;;;;;;;2.38;100.00;97111.03;5063641;28;19924;-79
2023/03/28 02:32:33;;;;;;;;;;;;;;;2.41;100.00;97110.69;5065831;28;19924;-78
2023/03/28 02:35:00;;;;;;;;;;;;;;;2.41;100.00;97113.34;5070371;28;19968;-79
2023/03/28 02:37:33;;;;;;;;;;;;;;;2.43;100.00;97106.03;5076288;28;19959;-78
2023/03/28 02:40:08;;;;;;;;;;;;;;;2.48;100.00;97101.88;5083219;28;19981;-78
2023/03/28 02:42:51;;;;;;;;;;;;;;;2.49;100.00;97111.53;5065492;28;19924;-79
2023/03/28 02:45:33;;;;;;;;;;;;;;;2.49;100.00;97100.88;5059145;28;19931;-78
2023/03/28 02:48:06;;;;;;;;;;;;;;;2.51;100.00;97108.72;5066387;28;20358;-79
2023/03/28 02:50:37;;;;;;;;;;;;;;;2.50;100.00;97101.72;5071472;28;19978;-78
2023/03/28 02:53:09;;;;;;;;;;;;;;;2.42;100.00;97109.69;5067493;28;19932;-79
2023/03/28 02:55:43;;;;;;;;;;;;;;;2.42;100.00;97115.03;5080223;28;19979;-78
2023/03/28 02:58:39;;;;;;;;;;;;;;;2.46;100.00;97109.22;5068116;28;19929;-78
2023/03/28 03:01:06;;;;;;;;;;;;;;;2.47;100.00;97108.19;5086558;28;19924;-78
2023/03/28 03:03:34;;;;;;;;;;;;;;;2.54;100.00;97095.91;5069248;28;20027;-79
2023/03/28 03:06:02;;;;;;;;;;;;;;;2.55;100.00;97102.91;5061512;28;19925;-79
2023/03/28 03:08:30;;;;;;;;;;;;;;;2.53;100.00;97104.91;5079975;28;19947;-79
2023/03/28 03:10:59;;;;;;;;;;;;;;;2.59;100.00;97106.09;5072740;28;19932;-80
2023/03/28 03:13:25;;;;;;;;;;;;;;;2.57;100.00;97106.25;5054694;28;19947;-78
2023/03/28 03:15:53;;;;;;;;;;;;;;;2.58;100.00;97113.25;5066581;28;19928;-79
2023/03/28 03:18:25;;;;;;;;;;;;;;;2.61;100.00;97098.78;5067615;28;19935;-78
2023/03/28 03:20:51;;;;;;;;;;;;;;;2.60;100.00;97097.09;5079322;28;20023;-79
2023/03/28 03:23:20;;;;;;;;;;;;;;;2.62;100.00;97100.44;5062312;28;19933;-79
2023/03/28 03:25:49;;;;;;;;;;;;;;;2.61;100.00;97099.59;5081744;28;19924;-78
2023/03/28 03:28:21;;;;;;;;;;;;;;;2.63;100.00;97096.78;5069654;28;19959;-79
2023/03/28 03:30:51;;;;;;;;;;;;;;;2.59;100.00;97095.41;5058898;28;19992;-78
2023/03/28 03:33:18;;;;;;;;;;;;;;;2.55;100.00;97100.22;5061710;28;19924;-78
2023/03/28 03:35:48;;;;;;;;;;;;;;;2.46;100.00;97095.91;5065239;28;20015;-78
2023/03/28 03:38:17;;;;;;;;;;;;;;;2.39;100.00;97094.00;5055832;28;19932;-79
2023/03/28 03:40:44;;;;;;;;;;;;;;;2.34;100.00;97096.34;5068553;28;19924;-78
2023/03/28 03:43:11;;;;;;;;;;;;;;;2.28;100.00;97093.34;5067648;28;19928;-79
2023/03/28 03:45:41;;;;;;;;;;;;;;;2.25;100.00;97103.47;5060703;28;19925;-78
2023/03/28 03:48:09;;;;;;;;;;;;;;;2.21;100.00;97102.13;5058639;28;20022;-78
2023/03/28 03:50:36;;;;;;;;;;;;;;;2.18;100.00;97094.44;5080990;28;19925;-79
2023/03/28 03:53:09;;;;;;;;;;;;;;;2.16;100.00;97099.94;5064360;28;20008;-79
2023/03/28 03:55:41;;;;;;;;;;;;;;;2.16;100.00;97104.41;5065290;28;19968;-78
2023/03/28 03:58:08;;;;;;;;;;;;;;;2.14;100.00;97109.91;5079486;28;19931;-79
2023/03/28 04:00:37;;;;;;;;;;;;;;;2.12;100.00;97111.91;5061261;28;19971;-79
2023/03/28 04:03:07;;;;;;;;;;;;;;;2.09;100.00;97106.06;5068511;28;19925;-78
2023/03/28 04:05:38;;;;;;;;;;;;;;;2.07;100.00;97106.22;5077375;28;19933;-79
2023/03/28 04:08:07;;;;;;;;;;;;;;;2.04;100.00;97109.19;5068289;28;19939;-78
2023/03/28 04:10:37;;;;;;;;;;;;;;;2.00;100.00;97110.50;5066186;28;19925;-78
2023/03/28 04:13:05;;;;;;;;;;;;;;;1.92;100.00;97115.78;5066956;28;19931;-79
2023/03/28 04:15:34;;;;;;;;;;;;;;;1.92;100.00;97117.63;5069976;28;19957;-78
2023/03/28 04:18:20;;;;;;;;;;;;;;;1.84;100.00;97113.91;5062941;28;20011;-79
2023/03/28 04:20:52;;;;;;;;;;;;;;;1.92;100.00;97115.78;5069416;28;19935;-78
2023/03/28 04:23:42;;;;;;;;;;;;;;;1.87;100.00;97110.91;5083525;28;19925;-78
2023/03/28 04:26:24;;;;;;;;;;;;;;;1.86;100.00;97111.09;5084674;28;19972;-79
2023/03/28 04:28:59;;;;;;;;;;;;;;;1.80;100.00;97106.38;5065603;28;19924;-79
2023/03/28 04:31:28;;;;;;;;;;;;;;;1.79;100.00;97112.69;5064592;28;19972;-78
2023/03/28 04:34:14;;;;;;;;;;;;;;;1.77;100.00;97114.72;5058516;28;20078;-78
2023/03/28 04:37:00;;;;;;;;;;;;;;;1.71;100.00;97115.31;5061285;28;19928;-78
2023/03/28 04:39:28;;;;;;;;;;;;;;;1.69;100.00;97117.31;5061980;28;19940;-78
2023/03/28 04:42:06;;;;;;;;;;;;;;;1.67;100.00;97113.97;5063288;28;19932;-78
2023/03/28 04:45:02;;;;;;;;;;;;;;;1.65;100.00;97113.28;5058542;28;20018;-80
2023/03/28 04:47:30;;;;;;;;;;;;;;;1.67;100.00;97116.63;5065065;28;19924;-78
2023/03/28 04:49:58;;;;;;;;;;;;;;;1.71;100.00;97120.63;5057838;28;19943;-78
2023/03/28 04:52:26;;;;;;;;;;;;;;;1.68;100.00;97120.97;5067158;28;19974;-79
2023/03/28 04:54:53;;;;;;;;;;;;;;;1.65;100.00;97124.78;5058406;28;19936;-78
2023/03/28 04:57:22;;;;;;;;;;;;;;;1.68;100.00;97124.47;5060190;28;20038;-79
2023/03/28 04:59:53;;;;;;;;;;;;;;;1.71;100.00;97123.28;5064744;28;19931;-79
2023/03/28 05:02:40;;;;;;;;;;;;;;;1.69;100.00;97127.97;5055009;28;19968;-78
2023/03/28 05:05:12;;;;;;;;;;;;;;;1.68;100.00;97129.78;5074589;28;19975;-78
2023/03/28 05:07:39;;;;;;;;;;;;;;;1.69;100.00;97133.28;5071574;28;19955;-79
2023/03/28 05:10:09;;;;;;;;;;;;;;;1.68;100.00;97131.63;5056188;28;19928;-78
2023/03/28 05:12:41;;;;;;;;;;;;;;;1.68;100.00;97136.94;5063643;28;19925;-78
2023/03/28 05:15:08;;;;;;;;;;;;;;;1.68;100.00;97139.59;5067076;28;20015;-78
2023/03/28 05:17:48;;;;;;;;;;;;;;;1.65;100.00;97139.91;5066495;28;19931;-78
2023/03/28 05:20:35;;;;;;;;;;;;;;;1.61;100.00;97136.72;5083159;28;20031;-78
2023/03/28 05:23:04;;;;;;;;;;;;;;;1.64;100.00;97146.22;5061581;28;19932;-78
2023/03/28 05:25:32;;;;;;;;;;;;;;;1.65;100.00;97142.56;5061577;28;19967;-78
2023/03/28 05:27:59;;;;;;;;;;;;;;;1.65;100.00;97153.22;5060855;28;19978;-78
2023/03/28 05:30:26;;;;;;;;;;;;;;;1.60;100.00;97152.84;5061497;28;19925;-79
2023/03/28 05:32:56;;;;;;;;;;;;;;;1.58;100.00;97155.66;5082844;28;19925;-80
2023/03/28 05:35:22;;;;;;;;;;;;;;;1.62;100.00;97156.19;5062604;28;19933;-79
2023/03/28 05:37:51;;;;;;;;;;;;;;;1.61;100.00;97167.84;5075100;28;19924;-79
2023/03/28 05:40:19;;;;;;;;;;;;;;;1.62;100.00;97164.16;5067930;28;19925;-78
2023/03/28 05:42:45;;;;;;;;;;;;;;;1.62;100.00;97174.81;5067496;28;19928;-79
2023/03/28 05:45:18;;;;;;;;;;;;;;;1.59;100.00;97180.47;5059189;28;20015;-78
2023/03/28 05:48:04;;;;;;;;;;;;;;;1.54;100.00;97175.59;5061720;28;19940;-79
2023/03/28 05:50:32;;;;;;;;;;;;;;;1.48;100.00;97179.72;5067129;28;19933;-78
2023/03/28 05:53:06;;;;;;;;;;;;;;;1.47;100.00;97188.69;5065249;28;19931;-78
2023/03/28 05:55:33;;;;;;;;;;;;;;;1.43;100.00;97181.16;5060297;28;19960;-78
2023/03/28 05:58:00;;;;;;;;;;;;;;;1.39;100.00;97196.59;5055872;28;19928;-79
2023/03/28 06:00:36;;;;;;;;;;;;;;;1.33;100.00;97197.22;5057310;28;19928;-78
2023/03/28 06:03:03;;;;;;;;;;;;;;;1.25;100.00;97202.44;5057400;28;19924;-79
2023/03/28 06:05:32;;;;;;;;;;;;;;;1.18;100.00;97214.69;5052496;28;19925;-79
2023/03/28 06:08:01;;;;;;;;;;;;;;;1.12;100.00;97207.28;5073355;28;19952;-78
2023/03/28 06:10:30;;;;;;;;;;;;;;;1.12;100.00;97212.63;5074135;28;19924;-78
2023/03/28 06:13:12;;;;;;;;;;;;;;;1.20;100.00;97218.00;5061667;28;20036;-78
2023/03/28 06:15:40;;;;;;;;;;;;;;;1.21;100.00;97219.69;5072643;28;19924;-79
2023/03/28 06:18:07;;;;;;;;;;;;;;;1.21;100.00;97214.38;5063128;28;19929;-78
2023/03/28 06:20:39;;;;;;;;;;;;;;;1.12;100.00;97220.59;5068438;28;19925;-78
2023/03/28 06:23:06;;;;;;;;;;;;;;;1.12;100.00;97223.25;5061469;28;19947;-79
2023/03/28 06:25:34;;;;;;;;;;;;;;;1.12;100.00;97220.59;5070863;28;19931;-79
2023/03/28 06:28:01;;;;;;;;;;;;;;;1.12;100.00;97223.25;5068182;28;19925;-78
2023/03/28 06:30:29;;;;;;;;;;;;;;;1.13;100.00;97231.09;5077569;28;19925;-78
2023/03/28 06:32:57;;;;;;;;;;;;;;;1.14;100.00;97230.09;5072789;28;19924;-78
2023/03/28 06:35:24;;;;;;;;;;;;;;;1.17;100.00;97228.97;5058633;28;19928;-79
2023/03/28 06:37:51;;;;;;;;;;;;;;;1.16;100.00;97231.78;5083120;28;19931;-78
2023/03/28 06:40:25;;;;;;;;;;;;;;;1.19;100.00;97224.34;5066882;28;19924;-78
2023/03/28 06:42:53;;;;;;;;;;;;;;;1.21;100.00;97219.69;5064954;28;19976;-78
2023/03/28 06:45:37;;;;;;;;;;;;;;;1.26;100.00;97220.09;5068269;28;19977;-78
2023/03/28 06:48:09;;;;;;;;;;;;;;;1.45;100.00;97225.25;5085479;28;19925;-77
2023/03/28 06:51:06;;;;;;;;;;;;;;;1.45;100.00;97222.59;5081419;28;20036;-77
2023/03/28 06:53:34;;;;;;;;;;;;;;;1.41;100.00;97225.72;5080294;28;19924;-79
2023/03/28 06:56:02;;;;;;;;;;;;;;;1.39;100.00;97223.19;5067370;28;19925;-80
2023/03/28 06:58:31;;;;;;;;;;;;;;;1.36;100.00;97222.69;5059814;28;20060;-79
2023/03/28 07:01:07;;;;;;;;;;;;;;;1.33;100.00;97226.47;5067671;28;19932;-78
2023/03/28 07:03:43;;;;;;;;;;;;;;;1.32;100.00;97227.47;5059844;28;19931;-79
2023/03/28 07:06:12;;;;;;;;;;;;;;;1.28;100.00;97230.56;5074009;28;19925;-78
2023/03/28 07:08:39;;;;;;;;;;;;;;;1.25;100.00;97221.06;5068906;28;19932;-79
2023/03/28 07:11:06;;;;;;;;;;;;;;;1.26;100.00;97212.13;5076234;28;19924;-79
2023/03/28 07:13:35;;;;;;;;;;;;;;;1.28;100.00;97220.75;5059242;28;19924;-78
2023/03/28 07:16:10;;;;;;;;;;;;;;;1.32;100.00;97215.97;5076429;28;19928;-79
2023/03/28 07:18:37;;;;;;;;;;;;;;;1.31;100.00;97220.47;5072025;28;19933;-79
2023/03/28 07:21:08;;;;;;;;;;;;;;;1.35;100.00;97229.84;5056291;28;19956;-78
2023/03/28 07:23:35;;;;;;;;;;;;;;;1.38;100.00;97226.84;5056500;28;19925;-79
2023/03/28 07:26:03;;;;;;;;;;;;;;;1.42;100.00;97230.88;5067079;28;19932;-79
2023/03/28 07:28:30;;;;;;;;;;;;;;;1.42;100.00;97228.22;5058668;28;19925;-78
2023/03/28 07:31:00;;;;;;;;;;;;;;;1.44;100.00;97230.75;5054396;28;19925;-77
2023/03/28 07:33:27;;;;;;;;;;;;;;;1.43;100.00;97224.59;5060684;28;19928;-78
2023/03/28 07:35:54;;;;;;;;;;;;;;;1.44;100.00;97228.09;5073651;28;19932;-78
2023/03/28 07:38:22;;;;;;;;;;;;;;;1.45;100.00;97230.56;5087430;28;19951;-78
2023/03/28 07:40:51;;;;;;;;;;;;;;;1.42;100.00;97228.22;5065424;28;19952;-78
2023/03/28 07:43:17;;;;;;;;;;;;;;;1.47;100.00;97227.75;5060766;28;19925;-77
2023/03/28 07:45:45;;;;;;;;;;;;;;;1.51;100.00;97231.81;5054192;28;19924;-77
2023/03/28 07:48:14;;;;;;;;;;;;;;;1.55;100.00;97227.00;5080573;28;19928;-79
2023/03/28 07:50:41;;;;;;;;;;;;;;;1.54;100.00;97226.16;5064093;28;19925;-78
2023/03/28 07:53:10;;;;;;;;;;;;;;;1.60;100.00;97230.06;5067622;28;19928;-77
2023/03/28 07:55:37;;;;;;;;;;;;;;;1.65;100.00;97230.41;5063925;28;19948;-77
2023/03/28 07:58:07;;;;;;;;;;;;;;;1.65;100.00;97231.25;5065972;28;19974;-79
2023/03/28 08:00:38;;;;;;;;;;;;;;;1.70;100.00;97231.63;5068064;28;19925;-79
2023/03/28 08:03:29;;;;;;;;;;;;;;;1.71;100.00;97227.97;5064618;28;19932;-79
2023/03/28 08:05:58;;;;;;;;;;;;;;;1.80;100.00;97226.22;5061925;28;19963;-78
2023/03/28 08:08:24;;;;;;;;;;;;;;;1.86;100.00;97226.44;5072489;28;19932;-78
2023/03/28 08:11:04;;;;;;;;;;;;;;;1.94;100.00;97227.50;5066190;28;20008;-78
2023/03/28 08:13:31;;;;;;;;;;;;;;;2.07;100.00;97219.91;5072688;28;19931;-78
2023/03/28 08:16:05;;;;;;;;;;;;;;;2.37;100.00;97224.78;5067898;28;19928;-78
2023/03/28 08:18:33;;;;;;;;;;;;;;;2.79;100.00;97222.16;5066076;28;19925;-78
2023/03/28 08:21:02;;;;;;;;;;;;;;;3.35;100.00;97226.00;5067425;28;19934;-78
2023/03/28 08:23:32;;;;;;;;;;;;;;;3.83;100.00;97225.19;5052331;28;20035;-78
2023/03/28 08:26:17;;;;;;;;;;;;;;;4.22;100.00;97230.72;5063171;28;19932;-79
2023/03/28 08:28:50;;;;;;;;;;;;;;;4.50;99.43;97236.53;5068827;28;19924;-79
2023/03/28 08:31:17;;;;;;;;;;;;;;;4.73;97.35;97229.41;5065170;28;19928;-79
2023/03/28 08:33:51;;;;;;;;;;;;;;;4.90;94.05;97225.69;5060864;28;19929;-79
2023/03/28 08:36:23;;;;;;;;;;;;;;;5.10;92.85;97215.41;5081728;28;19925;-78
2023/03/28 08:38:52;;;;;;;;;;;;;;;5.20;85.85;97217.81;5050910;28;19924;-79
2023/03/28 08:41:27;;;;;;;;;;;;;;;5.33;84.30;97216.28;5062699;28;19928;-79
2023/03/28 08:44:07;;;;;;;;;;;;;;;5.52;89.19;97214.16;5066746;28;19954;-79
2023/03/28 08:46:35;;;;;;;;;;;;;;;5.68;82.50;97214.03;5061909;28;19959;-78
2023/03/28 08:49:09;;;;;;;;;;;;;;;5.94;79.97;97211.84;5057734;28;19932;-78
2023/03/28 08:51:39;;;;;;;;;;;;;;;6.09;80.52;97211.88;5054503;28;19928;-79
2023/03/28 08:54:10;;;;;;;;;;;;;;;6.25;75.89;97217.09;5063795;28;20008;-79
2023/03/28 08:56:40;;;;;;;;;;;;;;;6.10;73.07;97208.19;5072947;28;19951;-79
2023/03/28 08:59:09;;;;;;;;;;;;;;;5.87;75.27;97210.84;5061360;28;19987;-78
2023/03/28 09:01:38;;;;;;;;;;;;;;;5.93;74.20;97212.88;5063021;28;20281;-79
2023/03/28 09:04:07;;;;;;;;;;;;;;;5.70;68.29;97212.81;5060833;28;19955;-78
2023/03/28 09:06:39;;;;;;;;;;;;;;;5.76;73.32;97203.25;5057974;28;19929;-80
2023/03/28 09:09:20;;;;;;;;;;;;;;;6.02;72.49;97208.28;5068624;28;19933;-79
2023/03/28 09:12:00;;;;;;;;;;;;;;;6.02;69.93;97208.28;5075977;28;19929;-79
2023/03/28 09:14:39;;;;;;;;;;;;;;;6.10;68.25;97202.00;5081439;28;19929;-80
2023/03/28 09:17:09;;;;;;;;;;;;;;;6.18;66.45;97193.88;5060663;28;19924;-79
2023/03/28 09:19:51;;;;;;;;;;;;;;;6.30;68.02;97198.59;5074340;28;19974;-80
2023/03/28 09:23:00;;;;;;;;;;;;;;;6.53;66.60;97198.56;5059693;28;19998;-78
2023/03/28 09:25:41;;;;;;;;;;;;;;;6.68;64.81;97194.00;5071378;28;19996;-78
2023/03/28 09:28:18;;;;;;;;;;;;;;;6.72;64.08;97197.97;5080482;28;19932;-78
2023/03/28 09:30:46;;;;;;;;;;;;;;;6.83;66.17;97191.31;5055974;28;19924;-79
2023/03/28 09:33:15;;;;;;;;;;;;;;;6.77;62.27;97192.06;5055104;28;19976;-78
2023/03/28 09:35:44;;;;;;;;;;;;;;;6.82;63.18;97190.47;5053201;28;19932;-79
2023/03/28 09:38:16;;;;;;;;;;;;;;;7.03;64.13;97188.91;5068199;28;19935;-79
2023/03/28 09:40:45;;;;;;;;;;;;;;;7.14;63.31;97196.47;5069577;28;19978;-79
2023/03/28 09:43:26;;;;;;;;;;;;;;;7.35;62.42;97193.00;5055749;28;19982;-80
2023/03/28 09:46:13;;;;;;;;;;;;;;;7.38;62.02;97190.78;5060059;28;19929;-80
2023/03/28 09:48:56;;;;;;;;;;;;;;;7.17;60.76;97185.34;5053909;28;19929;-79
2023/03/28 09:51:28;;;;;;;;;;;;;;;7.31;61.00;97191.72;5064000;28;19929;-79
2023/03/28 09:53:56;;;;;;;;;;;;;;;7.52;63.07;97183.66;5065855;28;19935;-80
2023/03/28 09:56:26;;;;;;;;;;;;;;;7.46;61.78;97185.28;5078559;28;19932;-78
2023/03/28 09:58:55;;;;;;;;;;;;;;;7.73;60.16;97175.63;5060178;28;19928;-80
2023/03/28 10:01:38;;;;;;;;;;;;;;;7.79;61.15;97171.34;5066688;28;19924;-79
2023/03/28 10:04:32;;;;;;;;;;;;;;;7.76;58.73;97169.84;5057246;28;19936;-80
2023/03/28 10:07:21;;;;;;;;;;;;;;;7.77;62.62;97159.94;5060561;28;20190;-80
2023/03/28 10:09:55;;;;;;;;;;;;;;;7.43;59.42;97163.31;5064640;28;19994;-80
2023/03/28 10:12:26;;;;;;;;;;;;;;;7.54;61.30;97160.13;5073414;28;19932;-78
2023/03/28 10:14:53;;;;;;;;;;;;;;;7.72;59.51;97165.91;5069301;28;19931;-79
2023/03/28 10:17:36;;;;;;;;;;;;;;;7.75;60.91;97159.28;5060509;28;20073;-80
2023/03/28 10:20:05;;;;;;;;;;;;;;;8.14;60.75;97156.97;5064443;28;20015;-79
2023/03/28 10:22:38;;;;;;;;;;;;;;;8.32;56.74;97164.56;5064247;28;19932;-79
2023/03/28 10:25:08;;;;;;;;;;;;;;;8.15;57.04;97161.31;5076482;28;19931;-79
2023/03/28 10:27:36;;;;;;;;;;;;;;;8.34;58.29;97162.50;5066169;28;19936;-79
2023/03/28 10:30:11;;;;;;;;;;;;;;;8.63;57.17;97156.06;5058923;28;20000;-79
2023/03/28 10:32:38;;;;;;;;;;;;;;;8.90;56.74;97157.88;5072425;28;19928;-80
2023/03/28 10:35:23;;;;;;;;;;;;;;;9.18;55.18;97154.25;5066501;28;19935;-80
2023/03/28 10:38:02;;;;;;;;;;;;;;;8.88;53.94;97143.78;5062808;28;20011;-79
2023/03/28 10:40:51;;;;;;;;;;;;;;;8.96;55.70;97140.91;5068980;28;19996;-78
2023/03/28 10:43:42;;;;;;;;;;;;;;;8.97;53.47;97139.88;5061666;28;20015;-81
2023/03/28 10:46:21;;;;;;;;;;;;;;;8.78;57.10;97129.00;5059263;28;19978;-79
2023/03/28 10:49:04;;;;;;;;;;;;;;;8.93;55.10;97124.34;5080722;28;19983;-79
2023/03/28 10:51:31;;;;;;;;;;;;;;;9.17;54.21;97114.88;5059254;28;20023;-79
2023/03/28 10:54:16;;;;;;;;;;;;;;;8.81;53.68;97115.97;5065854;28;19924;-78
2023/03/28 10:56:51;;;;;;;;;;;;;;;8.99;54.02;97113.56;5079791;28;19932;-79
2023/03/28 10:59:45;;;;;;;;;;;;;;;9.16;55.44;97115.91;5068121;28;19978;-78
2023/03/28 11:02:25;;;;;;;;;;;;;;;8.87;52.50;97120.56;5066986;28;19925;-78
2023/03/28 11:04:59;;;;;;;;;;;;;;;9.17;53.93;97101.41;5073593;28;19978;-79
2023/03/28 11:07:31;;;;;;;;;;;;;;;9.69;52.99;97098.81;5061919;28;19931;-79
2023/03/28 11:10:14;;;;;;;;;;;;;;;9.96;51.11;97093.41;5061696;28;19925;-79
2023/03/28 11:13:07;;;;;;;;;;;;;;;9.75;48.67;97087.19;5053679;28;19928;-79
2023/03/28 11:15:45;;;;;;;;;;;;;;;9.73;50.09;97083.84;5057468;28;19936;-78
2023/03/28 11:18:32;;;;;;;;;;;;;;;9.97;49.05;97081.56;5066787;28;19982;-78
2023/03/28 11:21:07;;;;;;;;;;;;;;;10.05;48.14;97082.19;5069396;28;19947;-79
2023/03/28 11:23:42;;;;;;;;;;;;;;;9.85;46.52;97087.63;5064416;28;19929;-78
2023/03/28 11:26:31;;;;;;;;;;;;;;;10.07;45.99;97077.41;5071065;28;19938;-78
2023/03/28 11:29:22;;;;;;;;;;;;;;;10.24;44.72;97075.13;5056820;28;19935;-78
2023/03/28 11:32:03;;;;;;;;;;;;;;;10.21;45.95;97070.97;5060083;28;19932;-78
2023/03/28 11:34:32;;;;;;;;;;;;;;;10.32;45.05;97063.28;5060059;28;19981;-79
2023/03/28 11:37:03;;;;;;;;;;;;;;;10.31;46.45;97070.56;5066447;28;19993;-78
2023/03/28 11:39:33;;;;;;;;;;;;;;;10.08;45.23;97059.34;5078553;28;19987;-80
2023/03/28 11:42:05;;;;;;;;;;;;;;;9.43;43.57;97064.56;5069187;28;19951;-78
2023/03/28 11:44:42;;;;;;;;;;;;;;;9.81;45.32;97058.53;5067684;28;19940;-79
2023/03/28 11:47:11;;;;;;;;;;;;;;;10.12;47.81;97053.31;5056625;28;20019;-78
2023/03/28 11:49:42;;;;;;;;;;;;;;;10.55;48.43;97050.97;5075598;28;19967;-79
2023/03/28 11:52:32;;;;;;;;;;;;;;;10.77;48.81;97046.13;5057903;28;19961;-79
2023/03/28 11:55:03;;;;;;;;;;;;;;;11.05;46.28;97053.06;5060851;28;19932;-79
2023/03/28 11:57:35;;;;;;;;;;;;;;;10.55;49.13;97045.56;5080990;28;19924;-78
2023/03/28 12:00:10;;;;;;;;;;;;;;;10.86;46.20;97046.69;5064342;28;19937;-79
2023/03/28 12:02:47;;;;;;;;;;;;;;;11.39;42.51;97041.84;5084307;28;19924;-79
2023/03/28 12:05:21;;;;;;;;;;;;;;;11.46;39.66;97047.19;5063197;28;19925;-79
2023/03/28 12:07:52;;;;;;;;;;;;;;;11.22;41.94;97044.22;5077182;28;19931;-78
2023/03/28 12:10:27;;;;;;;;;;;;;;;11.05;47.21;97048.47;5058718;28;19968;-78
2023/03/28 12:13:01;;;;;;;;;;;;;;;10.97;44.40;97051.44;5063300;28;19986;-78
2023/03/28 12:15:34;;;;;;;;;;;;;;;11.01;42.89;97041.84;5061171;28;19928;-78
2023/03/28 12:18:13;;;;;;;;;;;;;;;11.30;43.67;97033.16;5066445;28;19924;-77
2023/03/28 12:20:45;;;;;;;;;;;;;;;11.57;43.47;97022.94;5063814;28;19951;-78
2023/03/28 12:23:30;;;;;;;;;;;;;;;11.19;44.21;97020.31;5054852;28;19986;-79
2023/03/28 12:26:22;;;;;;;;;;;;;;;11.53;44.00;97012.81;5069536;28;19929;-77
2023/03/28 12:28:53;;;;;;;;;;;;;;;11.38;41.30;97015.84;5062198;28;19967;-77
2023/03/28 12:31:23;;;;;;;;;;;;;;;11.61;43.29;97007.94;5067042;28;19924;-79
2023/03/28 12:33:59;;;;;;;;;;;;;;;11.71;40.50;97002.88;5052648;28;19925;-79
2023/03/28 12:36:49;;;;;;;;;;;;;;;11.23;43.29;97002.59;5053120;28;19940;-79
2023/03/28 12:39:33;;;;;;;;;;;;;;;11.65;43.70;96994.81;5065658;28;20015;-79
2023/03/28 12:42:03;;;;;;;;;;;;;;;12.06;43.20;96978.00;5070060;28;19959;-78
2023/03/28 12:44:36;;;;;;;;;;;;;;;12.26;43.32;96980.50;5062043;28;19925;-78
2023/03/28 12:47:05;;;;;;;;;;;;;;;12.05;40.36;96971.78;5060904;28;19964;-79
2023/03/28 12:49:39;;;;;;;;;;;;;;;12.35;39.74;96971.00;5058512;28;19960;-78
2023/03/28 12:52:12;;;;;;;;;;;;;;;12.47;42.71;96959.22;5068356;28;19925;-78
2023/03/28 12:54:53;;;;;;;;;;;;;;;12.17;40.47;96955.59;5068332;28;19924;-79
2023/03/28 12:57:36;;;;;;;;;;;;;;;12.01;42.31;96948.91;5060960;28;19928;-79
2023/03/28 13:00:15;;;;;;;;;;;;;;;11.97;42.11;96944.16;5065764;28;19925;-78
2023/03/28 13:03:25;;;;;;;;;;;;;;;12.04;42.63;96943.03;5008745;28;20076;-79
2023/03/28 13:05:56;;;;;;;;;;;;;;;12.10;40.80;96941.31;5057025;28;19932;-80
2023/03/28 13:08:27;;;;;;;;;;;;;;;12.21;38.61;96942.44;5072740;28;20037;-79
2023/03/28 13:11:03;;;;;;;;;;;;;;;12.46;35.48;96937.75;5059620;28;19924;-78
2023/03/28 13:13:38;;;;;;;;;;;;;;;12.36;33.93;96929.34;5060020;28;19925;-79
2023/03/28 13:16:13;;;;;;;;;;;;;;;12.45;32.44;96939.63;5067980;28;19929;-79
2023/03/28 13:18:45;;;;;;;;;;;;;;;12.43;32.63;96938.19;5084125;28;20032;-79
2023/03/28 13:21:12;;;;;;;;;;;;;;;12.36;31.51;96942.88;5061566;28;19935;-79